createdAt,value
2023-04-19T00:00:09.988Z,63.48
2023-04-19T00:03:00.594Z,63.11
2023-04-19T00:05:35.504Z,62.70
2023-04-19T00:08:09.102Z,62.27
2023-04-19T00:10:49.801Z,62.25
2023-04-19T00:13:19.394Z,62.00
2023-04-19T00:15:54.546Z,61.95
2023-04-19T00:18:23.576Z,61.69
2023-04-19T00:20:54.899Z,61.49
2023-04-19T00:23:26.789Z,61.32
2023-04-19T00:26:03.928Z,61.11
2023-04-19T00:28:34.645Z,60.97
2023-04-19T00:31:06.708Z,60.72
2023-04-19T00:33:53.742Z,60.67
2023-04-19T00:36:40.715Z,60.55
2023-04-19T00:39:09.435Z,60.32
2023-04-19T00:41:42.864Z,60.38
2023-04-19T00:44:23.886Z,60.26
2023-04-19T00:47:00.684Z,60.31
2023-04-19T00:49:32.626Z,60.42
2023-04-19T00:52:01.396Z,60.40
2023-04-19T00:54:31.078Z,60.32
2023-04-19T00:57:00.992Z,60.08
2023-04-19T00:59:31.586Z,59.95
2023-04-19T01:02:01.140Z,59.96
2023-04-19T01:04:31.967Z,59.80
2023-04-19T01:07:03.099Z,59.74
2023-04-19T01:09:32.511Z,59.69
2023-04-19T01:12:03.252Z,59.62
2023-04-19T01:14:32.537Z,59.58
2023-04-19T01:17:03.611Z,59.74
2023-04-19T01:19:36.738Z,59.76
2023-04-19T01:22:06.394Z,59.73
2023-04-19T01:24:35.906Z,59.61
2023-04-19T01:27:06.045Z,59.67
2023-04-19T01:29:40.623Z,59.82
2023-04-19T01:32:12.190Z,59.98
2023-04-19T01:34:42.677Z,59.88
2023-04-19T01:37:13.972Z,59.98
2023-04-19T01:39:43.659Z,60.22
2023-04-19T01:42:12.486Z,60.24
2023-04-19T01:44:43.568Z,60.22
2023-04-19T01:47:16.235Z,60.06
2023-04-19T01:49:45.810Z,59.99
2023-04-19T01:52:17.117Z,60.15
2023-04-19T01:54:55.952Z,60.00
2023-04-19T01:57:25.058Z,60.24
2023-04-19T01:59:54.242Z,60.42
2023-04-19T02:02:25.850Z,60.34
2023-04-19T02:04:59.132Z,60.39
2023-04-19T02:07:34.490Z,60.53
2023-04-19T02:10:08.822Z,60.50
2023-04-19T02:12:37.964Z,60.64
2023-04-19T02:15:08.001Z,60.60
2023-04-19T02:17:39.543Z,60.40
2023-04-19T02:20:09.143Z,60.25
2023-04-19T02:22:38.000Z,60.15
2023-04-19T02:25:10.260Z,60.06
2023-04-19T02:27:39.158Z,59.82
2023-04-19T02:30:09.469Z,59.84
2023-04-19T02:32:38.567Z,59.78
2023-04-19T02:35:08.676Z,59.75
2023-04-19T02:37:37.681Z,59.61
2023-04-19T02:40:10.509Z,59.56
2023-04-19T02:42:39.185Z,59.55
2023-04-19T02:45:11.594Z,59.66
2023-04-19T02:47:40.544Z,59.72
2023-04-19T02:50:10.108Z,59.69
2023-04-19T02:52:43.916Z,59.86
2023-04-19T02:55:15.990Z,59.82
2023-04-19T02:57:46.168Z,60.01
2023-04-19T03:00:15.701Z,60.24
2023-04-19T03:02:50.441Z,60.65
2023-04-19T03:05:19.583Z,60.95
2023-04-19T03:07:48.971Z,60.92
2023-04-19T03:10:20.941Z,61.26
2023-04-19T03:12:49.801Z,61.84
2023-04-19T03:15:20.541Z,62.20
2023-04-19T03:17:50.182Z,62.62
2023-04-19T03:20:20.491Z,62.97
2023-04-19T03:22:49.641Z,63.26
2023-04-19T03:25:19.388Z,63.53
2023-04-19T03:27:53.703Z,63.79
2023-04-19T03:30:33.109Z,64.13
2023-04-19T03:33:06.376Z,64.52
2023-04-19T03:35:36.916Z,64.60
2023-04-19T03:38:14.002Z,64.92
2023-04-19T03:40:43.528Z,65.22
2023-04-19T03:43:15.488Z,65.44
2023-04-19T03:45:56.789Z,65.63
2023-04-19T03:48:31.546Z,65.82
2023-04-19T03:51:02.185Z,65.95
2023-04-19T03:53:31.672Z,65.93
2023-04-19T03:56:07.397Z,66.04
2023-04-19T03:58:43.434Z,66.04
2023-04-19T04:01:26.486Z,66.18
2023-04-19T04:04:09.488Z,66.18
2023-04-19T04:07:04.354Z,66.38
2023-04-19T04:12:29.344Z,66.42
2023-04-19T04:15:01.690Z,66.51
2023-04-19T04:17:34.630Z,66.82
2023-04-19T04:20:05.376Z,66.97
2023-04-19T04:22:40.004Z,66.93
2023-04-19T04:25:15.498Z,66.93
2023-04-19T04:27:45.352Z,66.86
2023-04-19T04:30:18.250Z,66.86
2023-04-19T04:32:47.446Z,67.04
2023-04-19T04:35:17.215Z,67.18
2023-04-19T04:37:57.812Z,67.33
2023-04-19T04:40:30.723Z,67.35
2023-04-19T04:43:04.807Z,67.22
2023-04-19T04:45:37.557Z,67.23
2023-04-19T04:48:09.021Z,67.08
2023-04-19T04:50:46.670Z,67.23
2023-04-19T04:53:15.737Z,67.37
2023-04-19T04:55:51.412Z,67.40
2023-04-19T04:58:25.466Z,67.29
2023-04-19T05:01:09.711Z,67.36
2023-04-19T05:03:42.595Z,67.59
2023-04-19T05:06:15.081Z,67.28
2023-04-19T05:08:48.690Z,67.15
2023-04-19T05:11:44.402Z,67.15
2023-04-19T05:14:15.805Z,67.01
2023-04-19T05:16:47.853Z,66.91
2023-04-19T05:19:20.207Z,67.27
2023-04-19T05:21:54.680Z,66.82
2023-04-19T05:24:27.564Z,66.86
2023-04-19T05:27:03.572Z,67.10
2023-04-19T05:29:37.419Z,66.89
2023-04-19T05:32:11.287Z,66.61
2023-04-19T05:34:48.018Z,66.80
2023-04-19T05:37:24.411Z,66.64
2023-04-19T05:39:57.943Z,66.60
2023-04-19T05:42:40.463Z,66.96
2023-04-19T05:45:45.646Z,67.18
2023-04-19T05:48:20.306Z,67.06
2023-04-19T05:51:22.117Z,66.86
2023-04-19T05:54:12.321Z,66.84
2023-04-19T05:56:49.412Z,66.53
2023-04-19T05:59:26.607Z,66.39
2023-04-19T06:02:07.709Z,66.30
2023-04-19T06:04:40.737Z,66.12
2023-04-19T06:07:33.935Z,65.87
2023-04-19T06:10:15.717Z,66.12
2023-04-19T06:12:46.796Z,66.01
2023-04-19T06:15:24.164Z,65.96
2023-04-19T06:18:05.300Z,65.89
2023-04-19T06:20:43.261Z,65.86
2023-04-19T06:23:23.347Z,66.09
2023-04-19T06:25:55.964Z,66.08
2023-04-19T06:28:29.354Z,65.59
2023-04-19T06:31:04.782Z,65.27
2023-04-19T06:33:34.990Z,65.36
2023-04-19T06:36:07.191Z,65.61
2023-04-19T06:38:44.295Z,65.61
2023-04-19T06:41:22.960Z,65.38
2023-04-19T06:43:55.513Z,65.30
2023-04-19T06:46:24.649Z,65.21
2023-04-19T06:48:58.641Z,65.07
2023-04-19T06:51:27.698Z,65.30
2023-04-19T06:54:00.152Z,65.42
2023-04-19T06:56:45.321Z,65.46
2023-04-19T06:59:19.309Z,66.04
2023-04-19T07:01:57.935Z,66.05
2023-04-19T07:04:34.587Z,65.98
2023-04-19T07:07:05.530Z,65.88
2023-04-19T07:09:36.336Z,65.96
2023-04-19T07:12:12.526Z,65.95
2023-04-19T07:14:44.506Z,65.93
2023-04-19T07:17:18.372Z,66.38
2023-04-19T07:19:52.481Z,66.98
2023-04-19T07:22:35.470Z,65.80
2023-04-19T07:25:05.488Z,64.20
2023-04-19T07:27:37.636Z,63.96
2023-04-19T07:30:07.554Z,63.46
2023-04-19T07:32:42.061Z,62.99
2023-04-19T07:35:28.240Z,61.94
2023-04-19T07:38:04.110Z,61.44
2023-04-19T07:40:38.367Z,61.16
2023-04-19T07:43:17.069Z,61.25
2023-04-19T07:45:55.527Z,61.21
2023-04-19T07:48:38.378Z,60.99
2023-04-19T07:51:13.780Z,60.93
2023-04-19T07:53:46.614Z,61.09
2023-04-19T07:56:28.970Z,61.25
2023-04-19T07:59:07.814Z,61.95
2023-04-19T08:01:45.577Z,62.83
2023-04-19T08:04:22.923Z,63.18
2023-04-19T08:07:07.500Z,62.55
2023-04-19T08:09:55.988Z,61.79
2023-04-19T08:12:38.320Z,61.43
2023-04-19T08:15:36.140Z,61.72
2023-04-19T08:17:59.006Z,61.92
2023-04-19T08:20:42.241Z,61.84
2023-04-19T08:23:24.531Z,62.08
2023-04-19T08:26:00.203Z,62.13
2023-04-19T08:28:36.054Z,62.03
2023-04-19T08:31:11.094Z,61.98
2023-04-19T08:33:45.723Z,61.98
2023-04-19T08:36:32.410Z,62.17
2023-04-19T08:39:29.123Z,62.35
2023-04-19T08:42:24.553Z,62.55
2023-04-19T08:45:27.121Z,62.24
2023-04-19T08:48:03.110Z,62.06
2023-04-19T08:50:48.419Z,62.35
2023-04-19T08:53:25.459Z,62.45
2023-04-19T08:59:04.061Z,62.55
2023-04-19T09:01:54.088Z,62.61
2023-04-19T09:04:36.489Z,62.29
2023-04-19T09:07:10.596Z,62.36
2023-04-19T09:10:13.647Z,62.53
2023-04-19T09:13:04.926Z,62.64
2023-04-19T09:15:40.895Z,62.59
2023-04-19T09:18:15.660Z,62.35
2023-04-19T09:20:48.403Z,62.46
2023-04-19T09:23:37.362Z,62.36
2023-04-19T09:26:23.257Z,62.32
2023-04-19T09:29:06.459Z,62.26
2023-04-19T09:31:51.442Z,62.21
2023-04-19T09:34:23.826Z,62.48
2023-04-19T09:37:17.725Z,62.44
2023-04-19T09:40:32.066Z,62.95
2023-04-19T09:45:51.378Z,63.31
2023-04-19T09:48:27.424Z,63.40
2023-04-19T09:51:05.812Z,63.56
2023-04-19T09:53:46.111Z,63.22
2023-04-19T09:56:26.854Z,62.71
2023-04-19T09:59:21.457Z,62.62
2023-04-19T10:01:57.821Z,62.46
2023-04-19T10:04:44.022Z,62.50
2023-04-19T10:08:02.133Z,62.65
2023-04-19T10:10:41.890Z,62.75
2023-04-19T10:13:26.670Z,62.89
2023-04-19T10:16:01.782Z,63.09
2023-04-19T10:19:11.092Z,62.91
2023-04-19T10:21:47.116Z,62.80
2023-04-19T10:24:21.129Z,62.71
2023-04-19T10:27:15.210Z,62.78
2023-04-19T10:30:28.758Z,63.07
2023-04-19T10:33:42.066Z,63.47
2023-04-19T10:36:20.354Z,63.12
2023-04-19T10:38:56.620Z,62.81
2023-04-19T10:41:59.082Z,62.64
2023-04-19T10:44:32.016Z,63.03
2023-04-19T10:52:12.857Z,62.98
2023-04-19T10:55:19.127Z,63.05
2023-04-19T10:58:14.257Z,62.87
2023-04-19T11:05:11.153Z,63.73
2023-04-19T11:07:57.344Z,63.52
2023-04-19T11:11:30.163Z,63.31
2023-04-19T11:14:12.019Z,63.17
2023-04-19T11:17:08.005Z,63.09
2023-04-19T11:23:01.439Z,63.06
2023-04-19T11:25:38.507Z,63.12
2023-04-19T11:28:33.145Z,63.22
2023-04-19T11:31:04.249Z,63.22
2023-04-19T11:33:36.944Z,63.23
2023-04-19T11:36:58.279Z,63.12
2023-04-19T11:39:50.212Z,63.50
2023-04-19T11:42:32.878Z,63.78
2023-04-19T11:45:31.254Z,63.69
2023-04-19T11:48:16.839Z,63.45
2023-04-19T11:50:49.046Z,63.40
2023-04-19T11:53:46.201Z,63.02
2023-04-19T11:56:19.138Z,62.91
2023-04-19T11:58:53.080Z,62.87
2023-04-19T12:01:25.059Z,62.70
2023-04-19T12:03:57.288Z,62.10
2023-04-19T12:06:31.555Z,62.45
2023-04-19T12:09:03.688Z,62.67
2023-04-19T12:11:50.790Z,62.71
2023-04-19T12:14:31.245Z,62.78
2023-04-19T12:17:09.817Z,62.71
2023-04-19T12:19:54.000Z,62.94
2023-04-19T12:22:29.528Z,63.29
2023-04-19T12:24:59.007Z,63.33
2023-04-19T12:27:28.151Z,63.09
2023-04-19T12:30:04.336Z,62.76
2023-04-19T12:32:38.216Z,62.59
2023-04-19T12:35:22.307Z,62.54
2023-04-19T12:38:01.921Z,62.23
2023-04-19T12:40:38.839Z,62.39
2023-04-19T12:43:10.970Z,62.88
2023-04-19T12:45:45.339Z,63.04
2023-04-19T12:48:25.335Z,63.33
2023-04-19T12:51:01.092Z,63.24
2023-04-19T12:53:37.622Z,63.31
2023-04-19T12:56:18.762Z,63.29
2023-04-19T12:58:53.926Z,63.58
2023-04-19T13:01:29.963Z,63.69
2023-04-19T13:04:28.608Z,63.59
2023-04-19T13:07:10.154Z,63.78
2023-04-19T13:09:46.303Z,63.48
2023-04-19T13:12:34.054Z,63.23
2023-04-19T13:15:12.261Z,62.89
2023-04-19T13:17:46.917Z,62.38
2023-04-19T13:20:29.031Z,61.67
2023-04-19T13:23:08.370Z,61.66
2023-04-19T13:25:40.784Z,61.59
2023-04-19T13:28:21.312Z,61.61
2023-04-19T13:30:56.758Z,61.71
2023-04-19T13:33:40.596Z,61.81
2023-04-19T13:36:30.391Z,62.07
2023-04-19T13:39:12.290Z,61.96
2023-04-19T13:43:01.020Z,61.94
2023-04-19T13:45:48.180Z,62.20
2023-04-19T13:48:31.848Z,62.09
2023-04-19T13:51:42.767Z,62.19
2023-04-19T13:54:22.986Z,62.07
2023-04-19T13:57:29.512Z,62.05
2023-04-19T14:00:37.854Z,62.02
2023-04-19T14:03:29.368Z,62.03
2023-04-19T14:06:01.627Z,61.82
2023-04-19T14:08:41.059Z,61.84
2023-04-19T14:11:26.759Z,61.92
2023-04-19T14:14:31.620Z,61.90
2023-04-19T14:17:19.764Z,61.94
2023-04-19T14:20:15.718Z,61.83
2023-04-19T14:23:07.844Z,61.87
2023-04-19T14:26:28.819Z,61.61
2023-04-19T14:29:31.206Z,61.54
2023-04-19T14:32:26.530Z,61.82
2023-04-19T14:35:24.074Z,61.55
2023-04-19T14:38:01.510Z,61.45
2023-04-19T14:40:58.715Z,61.48
2023-04-19T14:44:59.620Z,61.28
2023-04-19T14:48:10.408Z,61.49
2023-04-19T14:51:07.709Z,61.07
2023-04-19T14:54:10.465Z,60.73
2023-04-19T14:57:16.515Z,60.53
2023-04-19T15:00:12.972Z,60.03
2023-04-19T15:07:32.364Z,59.43
2023-04-19T15:10:38.221Z,59.12
2023-04-19T15:16:40.465Z,58.86
2023-04-19T15:19:40.927Z,58.70
2023-04-19T15:22:39.604Z,58.61
2023-04-19T15:29:49.664Z,58.98
2023-04-19T15:32:36.353Z,58.76
2023-04-19T15:36:20.546Z,58.58
2023-04-19T15:39:27.275Z,58.65
2023-04-19T15:43:22.466Z,58.92
2023-04-19T15:46:40.277Z,59.15
2023-04-19T15:53:19.577Z,59.05
2023-04-19T16:00:11.890Z,59.11
2023-04-19T16:03:02.469Z,59.33
2023-04-19T16:09:24.456Z,58.97
2023-04-19T16:12:24.421Z,59.16
2023-04-19T16:15:15.856Z,59.55
2023-04-19T16:17:57.275Z,59.68
2023-04-19T16:21:16.443Z,59.86
2023-04-19T16:28:37.616Z,60.04
2023-04-19T16:31:44.454Z,60.19
2023-04-19T16:34:43.013Z,60.53
2023-04-19T16:37:33.333Z,60.55
2023-04-19T16:48:45.187Z,60.75
2023-04-19T16:52:14.155Z,60.83
2023-04-19T16:55:58.380Z,61.02
2023-04-19T16:59:17.669Z,61.27
2023-04-19T17:02:09.730Z,61.29
2023-04-19T17:04:55.538Z,61.40
2023-04-19T17:08:03.720Z,61.62
2023-04-19T17:10:57.667Z,61.60
2023-04-19T17:13:56.651Z,61.68
2023-04-19T17:16:55.814Z,61.81
2023-04-19T17:19:57.431Z,62.04
2023-04-19T17:22:40.658Z,62.07
2023-04-19T17:25:17.366Z,62.43
2023-04-19T17:27:55.525Z,62.37
2023-04-19T17:30:47.354Z,62.44
2023-04-19T17:34:17.879Z,62.78
2023-04-19T17:37:46.286Z,63.19
2023-04-19T17:44:56.506Z,63.64
2023-04-19T17:48:47.168Z,64.02
2023-04-19T17:55:56.382Z,64.40
2023-04-19T17:59:05.990Z,64.61
2023-04-19T18:01:45.063Z,64.70
2023-04-19T18:04:23.594Z,64.86
2023-04-19T18:07:45.809Z,64.95
2023-04-19T18:10:48.084Z,64.96
2023-04-19T18:13:30.870Z,65.20
2023-04-19T18:16:19.019Z,65.44
2023-04-19T18:19:27.125Z,65.52
2023-04-19T18:21:58.814Z,65.71
2023-04-19T18:24:33.674Z,65.88
2023-04-19T18:27:10.049Z,65.83
2023-04-19T18:29:56.765Z,65.86
2023-04-19T18:32:48.201Z,66.11
2023-04-19T18:35:29.216Z,66.15
2023-04-19T18:38:06.166Z,66.27
2023-04-19T18:40:56.951Z,66.22
2023-04-19T18:44:24.826Z,66.33
2023-04-19T18:47:24.138Z,66.55
2023-04-19T18:50:12.229Z,66.58
2023-04-19T18:53:14.791Z,66.76
2023-04-19T18:56:03.667Z,66.90
2023-04-19T18:58:36.101Z,67.19
2023-04-19T19:01:15.392Z,67.26
2023-04-19T19:04:23.543Z,67.30
2023-04-19T19:07:33.379Z,67.54
2023-04-19T19:10:18.511Z,67.64
2023-04-19T19:12:55.773Z,67.55
2023-04-19T19:15:47.636Z,67.59
2023-04-19T19:18:16.490Z,67.74
2023-04-19T19:20:52.789Z,67.86
2023-04-19T19:23:35.517Z,67.87
2023-04-19T19:26:18.702Z,67.93
2023-04-19T19:29:16.065Z,67.94
2023-04-19T19:31:55.039Z,67.89
2023-04-19T19:34:30.631Z,67.92
2023-04-19T19:37:02.340Z,68.10
2023-04-19T19:39:38.206Z,68.23
2023-04-19T19:42:35.337Z,68.21
2023-04-19T19:45:20.539Z,68.30
2023-04-19T19:48:01.443Z,68.23
2023-04-19T19:51:11.990Z,68.32
2023-04-19T19:53:32.583Z,68.44
2023-04-19T19:56:10.830Z,68.42
2023-04-19T19:58:51.702Z,68.46
2023-04-19T20:01:31.887Z,68.61
2023-04-19T20:04:03.963Z,68.69
2023-04-19T20:09:36.359Z,68.47
2023-04-19T20:12:14.036Z,68.61
2023-04-19T20:15:05.303Z,68.93
2023-04-19T20:17:48.921Z,68.92
2023-04-19T20:20:34.152Z,68.93
2023-04-19T20:23:17.687Z,68.80
2023-04-19T20:26:02.840Z,68.99
2023-04-19T20:29:07.442Z,69.06
2023-04-19T20:31:53.205Z,69.20
2023-04-19T20:34:45.151Z,69.34
2023-04-19T20:37:18.191Z,69.23
2023-04-19T20:39:56.499Z,69.36
2023-04-19T20:42:33.412Z,69.31
2023-04-19T20:45:38.909Z,69.26
2023-04-19T20:48:16.188Z,69.37
2023-04-19T20:53:51.279Z,69.38
2023-04-19T20:56:33.721Z,69.42
2023-04-19T20:59:08.756Z,69.50
2023-04-19T21:01:55.333Z,69.61
2023-04-19T21:04:34.529Z,69.67
2023-04-19T21:07:06.651Z,69.58
2023-04-19T21:09:44.854Z,69.73
2023-04-19T21:12:19.573Z,69.73
2023-04-19T21:14:52.454Z,69.83
2023-04-19T21:17:24.756Z,69.88
2023-04-19T21:19:54.086Z,70.00
2023-04-19T21:22:23.157Z,70.10
2023-04-19T21:24:54.504Z,70.16
2023-04-19T21:27:30.039Z,70.09
2023-04-19T21:30:07.167Z,70.28
2023-04-19T21:32:41.052Z,70.39
2023-04-19T21:35:14.235Z,70.36
2023-04-19T21:37:45.677Z,70.23
2023-04-19T21:40:28.574Z,70.42
2023-04-19T21:43:16.056Z,70.56
2023-04-19T21:45:48.514Z,70.43
2023-04-19T21:48:30.267Z,70.53
2023-04-19T21:51:01.423Z,70.61
2023-04-19T21:53:33.818Z,70.82
2023-04-19T21:56:02.899Z,70.90
2023-04-19T21:58:37.092Z,70.79
2023-04-19T22:01:11.282Z,71.03
2023-04-19T22:03:42.639Z,70.97
2023-04-19T22:06:24.266Z,70.85
2023-04-19T22:09:05.329Z,70.87
2023-04-19T22:11:42.344Z,70.65
2023-04-19T22:14:14.097Z,70.68
2023-04-19T22:16:49.314Z,70.72
2023-04-19T22:19:24.089Z,70.89
2023-04-19T22:22:07.631Z,70.91
2023-04-19T23:13:10.002Z,72.00
